Time;durP1;ratioP1;P1;durP2;ratioP2;P2;SDS_P1;SDS_P2;PMS_P1;PMS_P2;Temp;Humidity;BMP_temperature;BMP_pressure;BME280_temperature;BME280_humidity;BME280_pressure;Samples;Min_cycle;Max_cycle;Signal;HPM_P1;HPM_P2
2021/10/08 00:00:29;;;;;;;7.93;5.07;;;;;;;16.44;44.77;102590.78;4990674;28;20104;-75
2021/10/08 00:02:56;;;;;;;9.30;5.28;;;;;;;16.42;44.87;102590.88;4993225;28;20050;-74
2021/10/08 00:05:22;;;;;;;9.85;5.82;;;;;;;16.41;45.12;102593.69;4977210;28;20498;-75
2021/10/08 00:07:49;;;;;;;8.02;5.10;;;;;;;16.39;45.03;102588.31;4978140;28;20166;-75
2021/10/08 00:10:16;;;;;;;7.72;4.93;;;;;;;16.36;44.99;102591.28;4988519;28;20042;-75
2021/10/08 00:12:43;;;;;;;7.68;5.20;;;;;;;16.35;45.18;102594.97;4989875;28;20046;-75
2021/10/08 00:15:10;;;;;;;8.98;5.25;;;;;;;16.32;44.86;102607.00;4991807;28;20461;-74
2021/10/08 00:17:37;;;;;;;8.85;5.35;;;;;;;16.31;44.88;102598.88;4989798;28;20057;-74
2021/10/08 00:20:05;;;;;;;9.73;5.35;;;;;;;16.28;44.75;102608.19;4990290;28;20043;-75
2021/10/08 00:22:31;;;;;;;8.02;5.47;;;;;;;16.25;44.78;102607.50;4990556;28;20514;-75
2021/10/08 00:24:58;;;;;;;8.02;4.97;;;;;;;16.21;44.91;102606.84;4988853;28;20104;-73
2021/10/08 00:27:25;;;;;;;7.70;4.82;;;;;;;16.20;44.91;102612.41;4990899;28;20050;-75
2021/10/08 00:29:51;;;;;;;8.88;5.05;;;;;;;16.17;45.13;102609.84;4964474;28;20050;-75
2021/10/08 00:32:18;;;;;;;8.73;5.35;;;;;;;16.15;44.84;102609.94;4991184;28;20077;-75
2021/10/08 00:34:45;;;;;;;10.63;5.05;;;;;;;16.12;45.08;102615.63;4990919;28;20054;-75
2021/10/08 00:37:11;;;;;;;7.70;4.85;;;;;;;16.10;45.13;102613.94;4990940;28;20492;-75
2021/10/08 00:39:38;;;;;;;7.90;4.80;;;;;;;16.09;44.88;102607.59;4989196;28;20138;-74
2021/10/08 00:42:05;;;;;;;7.32;4.90;;;;;;;16.08;45.16;102615.88;4988267;28;20069;-75
2021/10/08 00:44:32;;;;;;;7.78;4.80;;;;;;;16.07;45.15;102608.63;4990171;28;20069;-75
2021/10/08 00:46:59;;;;;;;8.35;4.90;;;;;;;16.04;45.29;102608.84;4980847;28;20050;-75
2021/10/08 00:49:25;;;;;;;8.30;4.85;;;;;;;16.01;45.18;102609.03;4988907;28;20050;-74
2021/10/08 00:51:52;;;;;;;9.63;4.93;;;;;;;15.98;45.03;102616.44;4974450;28;20085;-74
2021/10/08 00:54:18;;;;;;;7.63;4.88;;;;;;;15.98;45.01;102612.84;4990451;28;20046;-75
2021/10/08 00:56:46;;;;;;;7.60;4.75;;;;;;;15.95;45.28;102616.66;4991844;28;20113;-75
2021/10/08 00:59:12;;;;;;;8.55;4.85;;;;;;;15.93;45.27;102610.38;4989562;28;20049;-75
2021/10/08 01:01:39;;;;;;;8.57;4.63;;;;;;;15.92;45.09;102616.84;4989010;28;20116;-74
2021/10/08 01:04:08;;;;;;;7.18;4.90;;;;;;;15.92;45.36;102615.97;4976343;28;20054;-75
2021/10/08 01:06:35;;;;;;;8.57;5.20;;;;;;;15.87;45.07;102608.03;4987718;28;20109;-75
2021/10/08 01:09:02;;;;;;;8.63;5.32;;;;;;;15.86;45.17;102610.88;4988126;28;20824;-74
2021/10/08 01:11:28;;;;;;;9.70;5.30;;;;;;;15.84;45.43;102605.47;4985774;28;20481;-74
2021/10/08 01:13:55;;;;;;;9.35;5.00;;;;;;;15.83;45.23;102613.78;4991084;28;20137;-74
2021/10/08 01:16:22;;;;;;;10.02;5.55;;;;;;;15.81;44.95;102610.28;4946797;28;20042;-74
2021/10/08 01:18:49;;;;;;;10.27;5.70;;;;;;;15.80;45.31;102613.97;4982208;28;20058;-74
2021/10/08 01:21:16;;;;;;;9.70;5.30;;;;;;;15.79;45.08;102606.75;4985154;28;20058;-74
2021/10/08 01:23:42;;;;;;;9.00;5.25;;;;;;;15.76;44.98;102602.31;4990254;28;20138;-73
2021/10/08 01:26:09;;;;;;;11.38;6.43;;;;;;;15.74;45.25;102612.47;4987302;28;20043;-76
2021/10/08 01:28:35;;;;;;;9.07;5.50;;;;;;;15.72;45.17;102608.97;4990055;28;20104;-75
2021/10/08 01:31:02;;;;;;;9.52;5.60;;;;;;;15.69;45.26;102614.63;4988860;28;20051;-73
2021/10/08 01:33:29;;;;;;;9.85;5.55;;;;;;;15.68;45.10;102611.97;4989376;28;20051;-73
2021/10/08 01:35:55;;;;;;;8.95;5.13;;;;;;;15.66;45.46;102608.44;4988911;28;20054;-73
2021/10/08 01:38:22;;;;;;;9.50;4.97;;;;;;;15.65;45.32;102609.44;4989898;28;20047;-73
2021/10/08 01:40:49;;;;;;;8.73;5.30;;;;;;;15.63;45.56;102614.13;4989268;28;20137;-74
2021/10/08 01:43:15;;;;;;;8.88;5.53;;;;;;;15.60;45.28;102610.59;4991261;28;20513;-73
2021/10/08 01:45:42;;;;;;;10.20;5.40;;;;;;;15.59;45.36;102613.41;4989828;28;20050;-73
2021/10/08 01:48:09;;;;;;;10.55;5.45;;;;;;;15.58;45.56;102611.63;4989165;28;20053;-73
2021/10/08 01:50:35;;;;;;;11.43;5.63;;;;;;;15.56;45.25;102613.63;4974345;28;20046;-73
2021/10/08 01:53:02;;;;;;;8.73;4.63;;;;;;;15.54;45.13;102613.69;4990867;28;20462;-73
2021/10/08 01:55:29;;;;;;;8.60;5.10;;;;;;;15.51;45.44;102611.09;4990692;28;20050;-73
2021/10/08 01:57:56;;;;;;;9.23;5.30;;;;;;;15.50;45.39;102612.06;4986581;28;20101;-73
2021/10/08 02:00:23;;;;;;;7.88;4.70;;;;;;;15.48;45.79;102608.53;4989038;28;20081;-73
2021/10/08 02:02:49;;;;;;;8.95;4.72;;;;;;;15.48;45.75;102613.16;4991260;28;20074;-74
2021/10/08 02:05:16;;;;;;;9.20;5.10;;;;;;;15.46;45.62;102615.97;4977835;28;20073;-73
2021/10/08 02:07:47;;;;;;;9.60;4.85;;;;;;;15.46;45.55;102613.25;4986411;28;20105;-73
2021/10/08 02:10:15;;;;;;;9.45;4.88;;;;;;;15.45;45.69;102614.22;4989991;28;20101;-73
2021/10/08 02:12:41;;;;;;;9.60;5.25;;;;;;;15.43;45.42;102613.41;4974373;28;20142;-73
2021/10/08 02:15:08;;;;;;;9.23;5.20;;;;;;;15.43;45.45;102612.53;4990335;28;20070;-73
2021/10/08 02:17:35;;;;;;;8.35;4.75;;;;;;;15.42;45.50;102617.13;4988972;28;20092;-74
2021/10/08 02:20:03;;;;;;;9.35;5.07;;;;;;;15.40;45.12;102621.78;4988559;28;20058;-73
2021/10/08 02:22:29;;;;;;;8.30;4.57;;;;;;;15.39;45.34;102617.31;4991626;28;20065;-73
2021/10/08 02:24:56;;;;;;;10.25;5.00;;;;;;;15.38;45.19;102617.41;4988873;28;20146;-73
2021/10/08 02:27:22;;;;;;;8.07;4.65;;;;;;;15.37;45.45;102615.63;4989572;28;20569;-73
2021/10/08 02:29:49;;;;;;;8.27;5.03;;;;;;;15.35;45.53;102617.56;4987010;28;20064;-74
2021/10/08 02:32:16;;;;;;;9.25;5.30;;;;;;;15.33;45.40;102609.44;4990856;28;20097;-74
2021/10/08 02:34:42;;;;;;;8.07;4.45;;;;;;;15.32;45.06;102615.88;4991048;28;20101;-74
2021/10/08 02:37:09;;;;;;;8.38;4.82;;;;;;;15.30;45.31;102614.22;4995958;28;20070;-74
2021/10/08 02:39:35;;;;;;;9.02;4.97;;;;;;;15.29;45.13;102617.94;4992328;28;20105;-74
2021/10/08 02:42:04;;;;;;;9.52;5.18;;;;;;;15.27;45.42;102612.53;4991960;28;20050;-74
2021/10/08 02:44:32;;;;;;;8.45;5.15;;;;;;;15.26;45.12;102613.50;4992565;28;20069;-74
2021/10/08 02:46:58;;;;;;;8.40;4.95;;;;;;;15.23;45.32;102614.56;4987359;28;20076;-74
2021/10/08 02:49:25;;;;;;;9.77;5.05;;;;;;;15.22;45.31;102606.47;4993280;28;20133;-74
2021/10/08 02:51:51;;;;;;;8.48;5.38;;;;;;;15.20;45.55;102612.03;4992080;28;20129;-74
2021/10/08 02:54:18;;;;;;;8.50;4.57;;;;;;;15.19;45.33;102609.38;4990478;28;20378;-73
2021/10/08 02:56:45;;;;;;;10.23;4.65;;;;;;;15.18;45.49;102604.88;4976220;28;20134;-73
2021/10/08 02:59:11;;;;;;;7.75;4.82;;;;;;;15.16;45.83;102607.69;4990139;28;20050;-74
2021/10/08 03:01:38;;;;;;;8.55;4.32;;;;;;;15.15;45.58;102610.53;5002773;28;20054;-73
2021/10/08 03:04:05;;;;;;;8.98;4.40;;;;;;;15.12;45.31;102606.13;4991660;28;20519;-74
2021/10/08 03:06:32;;;;;;;6.97;4.32;;;;;;;15.12;45.46;102608.84;4990879;28;20532;-74
2021/10/08 03:08:59;;;;;;;7.32;4.53;;;;;;;15.10;45.17;102609.91;4991158;28;20113;-74
2021/10/08 03:11:26;;;;;;;7.03;4.32;;;;;;;15.09;45.40;102608.13;4993874;28;20074;-74
2021/10/08 03:13:52;;;;;;;7.95;4.70;;;;;;;15.07;45.60;102612.84;4994551;28;20559;-74
2021/10/08 03:16:19;;;;;;;7.90;4.47;;;;;;;15.06;45.22;102605.59;4977249;28;20137;-74
2021/10/08 03:18:46;;;;;;;7.40;4.18;;;;;;;15.05;45.21;102603.84;4992521;28;20061;-74
2021/10/08 03:21:12;;;;;;;8.45;4.60;;;;;;;15.03;45.20;102603.03;4987488;28;20470;-74
2021/10/08 03:23:39;;;;;;;7.50;4.10;;;;;;;15.01;45.10;102603.13;4993434;28;20089;-74
2021/10/08 03:26:05;;;;;;;7.53;4.45;;;;;;;15.00;45.43;102609.56;4990273;28;20133;-74
2021/10/08 03:28:32;;;;;;;8.23;4.35;;;;;;;14.99;44.93;102616.00;4992049;28;20555;-74
2021/10/08 03:30:59;;;;;;;7.43;4.32;;;;;;;14.98;45.46;102617.00;4986829;28;20053;-74
2021/10/08 03:33:26;;;;;;;7.35;4.60;;;;;;;14.97;44.94;102614.34;4991934;28;20409;-74
2021/10/08 03:35:53;;;;;;;7.85;4.38;;;;;;;14.95;45.29;102608.94;4989864;28;20104;-74
2021/10/08 03:38:20;;;;;;;6.63;4.43;;;;;;;14.92;45.56;102611.84;4993276;28;20129;-74
2021/10/08 03:41:06;;;;;;;8.32;4.43;;;;;;;14.92;45.07;102611.84;4989016;28;20453;-74
2021/10/08 03:43:34;;;;;;;7.40;4.18;;;;;;;14.88;45.21;102604.81;4987700;28;20134;-74
2021/10/08 03:46:03;;;;;;;7.55;4.18;;;;;;;14.87;44.98;102611.25;4989501;28;20144;-74
2021/10/08 03:51:01;;;;;;;7.55;4.55;;;;;;;14.84;45.53;102608.66;4988674;28;20050;-74
2021/10/08 03:53:28;;;;;;;7.68;4.45;;;;;;;14.82;45.54;102622.41;4992324;28;20074;-74
2021/10/08 03:55:55;;;;;;;6.75;4.13;;;;;;;14.80;45.29;102615.28;4987966;28;20056;-74
2021/10/08 03:58:21;;;;;;;7.45;4.32;;;;;;;14.78;45.29;102620.84;4992275;28;20097;-74
2021/10/08 04:00:48;;;;;;;7.03;4.20;;;;;;;14.75;45.49;102615.53;4990259;28;20078;-74
2021/10/08 04:03:15;;;;;;;7.32;3.83;;;;;;;14.74;45.40;102619.22;4992248;28;20078;-74
2021/10/08 04:05:43;;;;;;;7.10;4.07;;;;;;;14.73;45.19;102619.34;4989491;28;20441;-74
2021/10/08 04:08:09;;;;;;;7.82;4.68;;;;;;;14.72;45.17;102623.03;4992307;28;20394;-74
2021/10/08 04:10:36;;;;;;;6.63;4.43;;;;;;;14.70;45.14;102620.41;4990393;28;20074;-74
2021/10/08 04:13:02;;;;;;;7.40;4.07;;;;;;;14.69;45.21;102617.75;4991407;28;20046;-74
2021/10/08 04:15:30;;;;;;;7.35;4.10;;;;;;;14.67;45.24;102623.28;4986140;28;20042;-74
2021/10/08 04:17:57;;;;;;;7.60;4.07;;;;;;;14.66;45.28;102623.41;4990431;28;20707;-74
2021/10/08 04:20:24;;;;;;;7.35;4.20;;;;;;;14.64;45.39;102620.75;4990910;28;20486;-74
2021/10/08 04:22:50;;;;;;;8.48;4.25;;;;;;;14.63;45.37;102624.44;4993076;28;20081;-74
2021/10/08 04:25:17;;;;;;;7.43;4.32;;;;;;;14.60;45.17;102623.72;4990973;28;20074;-74
2021/10/08 04:27:43;;;;;;;7.05;4.25;;;;;;;14.59;45.34;102621.94;4988623;28;20569;-74
2021/10/08 04:30:10;;;;;;;9.10;5.18;;;;;;;14.57;45.40;102630.25;4990320;28;20078;-74
2021/10/08 04:32:37;;;;;;;6.38;4.03;;;;;;;14.56;45.37;102630.34;4992284;28;20133;-74
2021/10/08 04:35:05;;;;;;;7.07;3.83;;;;;;;14.54;45.28;102630.41;4990724;28;20050;-74
2021/10/08 04:37:31;;;;;;;7.72;4.38;;;;;;;14.53;45.24;102633.22;4991153;28;20136;-74
2021/10/08 04:39:58;;;;;;;6.75;4.35;;;;;;;14.52;44.86;102635.06;4980463;28;20058;-74
2021/10/08 04:42:25;;;;;;;7.18;4.10;;;;;;;14.50;45.27;102633.38;4990196;28;20092;-74
2021/10/08 04:44:51;;;;;;;8.00;5.13;;;;;;;14.48;45.12;102628.03;4991970;28;20084;-74
2021/10/08 04:47:18;;;;;;;7.80;4.07;;;;;;;14.46;45.27;102628.09;4990554;28;20481;-74
2021/10/08 04:49:44;;;;;;;7.57;4.03;;;;;;;14.45;45.28;102640.00;4988922;28;20050;-74
2021/10/08 04:52:11;;;;;;;7.13;4.22;;;;;;;14.44;45.02;102626.41;4994968;28;20054;-74
2021/10/08 04:54:37;;;;;;;6.43;3.78;;;;;;;14.42;45.15;102629.22;5010365;28;20050;-74
2021/10/08 04:57:05;;;;;;;6.90;4.25;;;;;;;14.42;45.45;102633.81;4981662;28;20118;-73
2021/10/08 04:59:31;;;;;;;7.57;3.95;;;;;;;14.40;45.61;102630.31;4984016;28;20050;-74
2021/10/08 05:01:58;;;;;;;6.95;4.40;;;;;;;14.39;45.42;102628.53;4995583;28;20078;-75
2021/10/08 05:04:26;;;;;;;6.72;4.10;;;;;;;14.38;45.15;102641.31;4983161;28;20058;-74
2021/10/08 05:06:53;;;;;;;8.15;4.30;;;;;;;14.37;45.34;102644.09;4974256;28;20057;-75
2021/10/08 05:09:19;;;;;;;6.95;4.20;;;;;;;14.36;45.58;102643.19;4992235;28;20076;-74
2021/10/08 05:11:46;;;;;;;8.25;4.55;;;;;;;14.34;45.06;102636.94;4993836;28;20445;-75
2021/10/08 05:14:13;;;;;;;8.35;4.88;;;;;;;14.34;45.41;102647.84;4987415;28;20054;-73
2021/10/08 05:16:39;;;;;;;7.97;4.82;;;;;;;14.32;45.52;102644.34;4971759;28;20077;-73
2021/10/08 05:19:07;;;;;;;9.48;4.90;;;;;;;14.32;45.50;102640.72;4990875;28;20070;-74
2021/10/08 05:21:33;;;;;;;8.15;4.35;;;;;;;14.30;45.32;102638.06;4996264;28;20465;-74
2021/10/08 05:24:00;;;;;;;7.53;4.65;;;;;;;14.29;45.40;102639.03;4975846;28;20046;-74
2021/10/08 05:26:26;;;;;;;8.13;4.82;;;;;;;14.29;45.24;102644.50;4989384;28;20066;-74
2021/10/08 05:28:53;;;;;;;7.18;4.18;;;;;;;14.27;45.19;102642.81;4991968;28;20050;-73
2021/10/08 05:31:20;;;;;;;7.53;4.60;;;;;;;14.28;45.47;102647.31;4985883;28;20074;-73
2021/10/08 05:33:46;;;;;;;7.13;4.40;;;;;;;14.26;45.27;102646.50;4991395;28;20057;-72
2021/10/08 05:36:13;;;;;;;7.65;4.55;;;;;;;14.25;45.36;102644.72;4965591;28;20042;-73
2021/10/08 05:38:39;;;;;;;8.00;5.13;;;;;;;14.23;45.33;102649.41;4995076;28;20089;-74
2021/10/08 05:41:08;;;;;;;7.05;4.35;;;;;;;14.21;45.43;102644.03;4988584;28;20043;-73
2021/10/08 05:43:35;;;;;;;8.23;4.82;;;;;;;14.20;45.18;102647.72;4991558;28;20050;-73
2021/10/08 05:46:01;;;;;;;6.72;4.13;;;;;;;14.20;45.39;102652.31;4989147;28;20074;-73
2021/10/08 05:48:28;;;;;;;8.63;5.05;;;;;;;14.19;45.29;102650.53;4990481;28;20074;-74
2021/10/08 05:50:55;;;;;;;8.00;4.55;;;;;;;14.17;45.51;102652.47;4976211;28;20693;-74
2021/10/08 05:53:21;;;;;;;7.70;4.35;;;;;;;14.15;45.29;102649.84;4975826;28;20090;-74
2021/10/08 05:55:48;;;;;;;7.50;4.28;;;;;;;14.15;45.25;102655.28;4995049;28;20622;-74
2021/10/08 05:58:14;;;;;;;7.70;4.20;;;;;;;14.14;45.32;102649.91;4988998;28;20096;-73
2021/10/08 06:00:41;;;;;;;8.20;4.35;;;;;;;14.14;45.57;102658.09;4988391;28;20133;-74
2021/10/08 06:03:07;;;;;;;7.38;4.40;;;;;;;14.13;45.61;102653.59;4989491;28;20054;-73
2021/10/08 06:05:36;;;;;;;8.13;4.35;;;;;;;14.12;45.38;102666.38;4984245;28;20436;-75
2021/10/08 06:08:06;;;;;;;8.30;4.50;;;;;;;14.12;45.36;102666.38;4989313;28;20053;-75
2021/10/08 06:10:36;;;;;;;7.25;4.32;;;;;;;14.09;45.30;102671.97;4977792;28;20045;-77
2021/10/08 06:13:03;;;;;;;7.78;4.50;;;;;;;14.08;45.32;102665.63;4996299;28;20055;-77
2021/10/08 06:15:29;;;;;;;7.28;4.05;;;;;;;14.08;45.45;102670.25;4995482;28;20054;-77
2021/10/08 06:17:56;;;;;;;7.93;4.25;;;;;;;14.07;45.58;102674.81;4995940;28;20108;-76
2021/10/08 06:20:26;;;;;;;8.10;4.63;;;;;;;14.06;45.50;102670.31;4994923;28;20105;-76
2021/10/08 06:22:54;;;;;;;8.48;4.75;;;;;;;14.07;45.27;102673.94;4994537;28;20051;-76
2021/10/08 06:25:21;;;;;;;7.65;4.65;;;;;;;14.06;45.78;102674.91;4996895;28;20073;-76
2021/10/08 06:27:51;;;;;;;7.07;4.40;;;;;;;14.05;45.58;102671.28;4984200;28;20051;-76
2021/10/08 06:30:18;;;;;;;9.95;5.20;;;;;;;14.05;45.67;102675.84;4995899;28;20053;-77
2021/10/08 06:32:45;;;;;;;6.88;4.70;;;;;;;14.06;46.08;102678.50;4977203;28;20462;-78
2021/10/08 06:35:12;;;;;;;7.03;4.53;;;;;;;14.08;45.98;102679.28;4989705;28;20075;-77
2021/10/08 06:37:38;;;;;;;7.63;4.57;;;;;;;14.09;46.08;102686.53;4994495;28;20682;-77
2021/10/08 06:40:09;;;;;;;8.70;4.97;;;;;;;14.11;46.27;102683.72;4993374;28;20058;-75
2021/10/08 06:42:36;;;;;;;8.68;5.07;;;;;;;14.14;46.32;102688.16;4995880;28;20101;-75
2021/10/08 06:45:04;;;;;;;9.07;5.30;;;;;;;14.17;46.39;102690.69;4974762;28;20101;-75
2021/10/08 06:47:30;;;;;;;7.97;4.47;;;;;;;14.19;46.23;102686.94;4979976;28;20129;-77
2021/10/08 06:49:57;;;;;;;9.15;4.45;;;;;;;14.20;46.44;102693.28;4966645;28;20425;-76
2021/10/08 06:52:24;;;;;;;8.25;4.50;;;;;;;14.24;46.46;102693.06;4993548;28;20516;-75
2021/10/08 06:54:54;;;;;;;8.45;4.57;;;;;;;14.28;46.50;102691.03;4993277;28;20076;-75
2021/10/08 06:57:32;;;;;;;8.23;4.75;;;;;;;14.30;46.69;102690.00;4993703;28;20042;-79
2021/10/08 07:00:31;;;;;;;10.25;5.43;;;;;;;14.33;46.92;102697.16;4931868;28;20047;-77
2021/10/08 07:09:14;;;;;;;9.70;5.38;;;;;;;14.43;46.79;102692.97;4962101;28;20062;-75
2021/10/08 07:11:41;;;;;;;9.90;5.35;;;;;;;14.48;46.70;102690.88;4976797;28;20051;-78
2021/10/08 07:14:07;;;;;;;8.68;5.07;;;;;;;14.52;46.27;102688.84;4997777;28;20050;-77
2021/10/08 07:16:40;;;;;;;9.18;4.80;;;;;;;14.58;46.81;102693.97;4987072;28;20105;-77
2021/10/08 07:19:16;;;;;;;7.97;5.15;;;;;;;14.58;46.41;102688.50;4995044;28;20379;-77
2021/10/08 07:21:43;;;;;;;8.18;4.93;;;;;;;14.61;46.30;102691.97;4972338;28;20054;-78
2021/10/08 07:24:10;;;;;;;8.88;4.97;;;;;;;14.66;46.63;102695.34;4984622;28;20050;-78
2021/10/08 07:26:37;;;;;;;9.23;6.10;;;;;;;14.70;46.91;102701.53;4991690;28;20042;-77
2021/10/08 07:29:03;;;;;;;9.55;5.68;;;;;;;14.73;46.64;102687.69;4992321;28;20074;-80
2021/10/08 07:31:33;;;;;;;8.15;4.97;;;;;;;14.76;46.66;102687.50;4977738;28;20050;-77
2021/10/08 07:34:00;;;;;;;9.75;5.50;;;;;;;14.79;46.98;102690.97;4993933;28;20046;-77
2021/10/08 07:36:27;;;;;;;9.88;6.05;;;;;;;14.81;46.84;102689.06;4991353;28;20050;-76
2021/10/08 07:38:53;;;;;;;8.32;5.25;;;;;;;14.84;46.71;102697.06;4975722;28;20058;-77
2021/10/08 07:41:20;;;;;;;7.40;4.78;;;;;;;14.88;47.02;102697.78;4989718;28;20054;-77
2021/10/08 07:43:47;;;;;;;7.25;4.63;;;;;;;14.91;46.72;102703.06;4992658;28;20113;-76
2021/10/08 07:46:13;;;;;;;8.45;4.60;;;;;;;14.94;46.85;102700.16;4989219;28;20142;-75
2021/10/08 07:48:40;;;;;;;9.07;4.93;;;;;;;14.98;46.97;102703.63;4982507;28;20058;-80
2021/10/08 07:51:10;;;;;;;7.65;4.68;;;;;;;15.03;47.36;102704.25;4992158;28;20536;-78
2021/10/08 07:53:36;;;;;;;7.43;4.85;;;;;;;15.04;46.91;102706.91;4985184;28;20663;-76
2021/10/08 07:56:04;;;;;;;7.32;4.35;;;;;;;15.07;46.97;102705.84;4983551;28;20077;-77
2021/10/08 07:58:30;;;;;;;7.68;4.43;;;;;;;15.09;47.21;102707.50;4989989;28;20113;-77
2021/10/08 08:00:59;;;;;;;7.57;4.68;;;;;;;15.14;47.05;102707.28;4978112;28;20050;-76
2021/10/08 08:03:26;;;;;;;9.20;4.80;;;;;;;15.16;47.25;102706.19;4992318;28;20054;-76
2021/10/08 08:05:56;;;;;;;9.35;5.18;;;;;;;15.19;46.85;102699.66;4970540;28;20046;-77
2021/10/08 08:08:23;;;;;;;8.30;4.97;;;;;;;15.22;47.36;102708.59;4993163;28;20050;-77
2021/10/08 08:10:51;;;;;;;9.20;5.00;;;;;;;15.26;47.51;102703.81;4987627;28;20042;-77
2021/10/08 08:13:18;;;;;;;8.77;4.78;;;;;;;15.29;47.15;102697.31;4994303;28;20069;-77
2021/10/08 08:15:44;;;;;;;7.60;4.60;;;;;;;15.32;47.50;102706.19;4991568;28;20046;-77
2021/10/08 08:18:11;;;;;;;8.30;4.82;;;;;;;15.37;47.42;102708.69;4967097;28;20070;-78
2021/10/08 08:20:38;;;;;;;9.60;5.40;;;;;;;15.38;47.57;102704.97;4992315;28;20481;-77
2021/10/08 08:23:09;;;;;;;7.18;4.82;;;;;;;15.46;47.87;102702.69;4990769;28;20074;-77
2021/10/08 08:25:36;;;;;;;8.93;5.25;;;;;;;15.48;48.03;102703.50;4991879;28;20065;-78
2021/10/08 08:28:03;;;;;;;9.57;5.40;;;;;;;15.50;47.65;102694.19;4992739;28;20061;-77
2021/10/08 08:30:29;;;;;;;8.02;4.68;;;;;;;15.55;47.87;102699.44;4991318;28;20470;-77
2021/10/08 08:32:56;;;;;;;8.77;4.45;;;;;;;15.59;47.82;102703.75;4992847;28;20486;-77
2021/10/08 08:35:22;;;;;;;7.25;4.30;;;;;;;15.64;47.99;102698.91;4978390;28;20493;-76
2021/10/08 08:37:49;;;;;;;8.80;4.65;;;;;;;15.68;47.90;102697.75;4997633;28;20041;-76
2021/10/08 08:40:28;;;;;;;8.10;4.53;;;;;;;15.73;48.33;102695.59;4979640;28;20539;-77
2021/10/08 08:43:15;;;;;;;8.35;4.57;;;;;;;15.77;48.38;102696.31;4983670;28;20429;-76
2021/10/08 08:45:42;;;;;;;8.80;5.07;;;;;;;15.82;48.08;102703.28;4988561;28;20046;-76
2021/10/08 08:48:11;;;;;;;7.38;4.30;;;;;;;15.91;48.47;102704.59;4990773;28;20457;-77
2021/10/08 08:50:41;;;;;;;8.98;4.82;;;;;;;15.96;48.43;102700.63;4988137;28;20078;-76
2021/10/08 08:53:08;;;;;;;9.48;5.45;;;;;;;15.99;48.07;102692.19;4994621;28;20050;-77
2021/10/08 08:55:35;;;;;;;8.98;5.18;;;;;;;16.06;48.23;102700.06;4972984;28;20137;-77
2021/10/08 08:58:02;;;;;;;9.00;4.97;;;;;;;16.11;48.70;102692.44;4986838;28;20469;-76
2021/10/08 09:00:29;;;;;;;10.73;5.43;;;;;;;16.17;48.77;102689.31;4964129;28;20046;-77
2021/10/08 09:03:02;;;;;;;9.00;5.20;;;;;;;16.25;48.59;102693.34;4993887;28;20053;-76
2021/10/08 09:05:35;;;;;;;10.85;4.70;;;;;;;16.31;48.68;102698.44;4990336;28;20039;-76
2021/10/08 09:08:05;;;;;;;10.52;5.00;;;;;;;16.36;48.76;102689.97;4980194;28;20043;-76
2021/10/08 09:10:34;;;;;;;8.10;4.82;;;;;;;16.44;48.58;102687.63;4992796;28;20145;-76
2021/10/08 09:13:02;;;;;;;9.70;5.28;;;;;;;16.50;48.92;102691.81;4972911;28;20054;-75
2021/10/08 09:15:49;;;;;;;7.60;4.38;;;;;;;16.60;48.61;102687.53;4967091;28;20460;-74
2021/10/08 09:18:18;;;;;;;8.30;4.90;;;;;;;16.66;49.01;102682.56;4985774;28;20148;-75
2021/10/08 09:21:12;;;;;;;8.68;5.25;;;;;;;16.74;48.72;102677.47;4945240;28;20042;-75
2021/10/08 09:23:47;;;;;;;10.38;5.25;;;;;;;16.84;49.28;102677.78;4970128;28;20077;-74
2021/10/08 09:26:22;;;;;;;10.15;5.15;;;;;;;16.94;49.03;102680.81;4985060;28;20120;-75
2021/10/08 09:29:01;;;;;;;10.65;6.20;;;;;;;17.02;49.08;102681.19;4972319;28;20402;-75
2021/10/08 09:31:42;;;;;;;9.25;5.55;;;;;;;17.10;48.95;102676.97;4982436;28;20046;-75
2021/10/08 09:34:14;;;;;;;9.98;4.93;;;;;;;17.16;49.09;102672.94;4986543;28;20117;-75
2021/10/08 09:36:45;;;;;;;9.52;5.13;;;;;;;17.25;48.80;102680.56;4991153;28;20072;-75
2021/10/08 09:39:22;;;;;;;7.80;4.00;;;;;;;17.38;49.17;102669.63;4998417;28;20516;-76
2021/10/08 09:42:01;;;;;;;7.70;4.63;;;;;;;17.49;48.95;102672.56;4986741;28;20047;-77
2021/10/08 09:44:29;;;;;;;8.32;4.85;;;;;;;17.57;48.81;102674.78;4994892;28;20046;-76
2021/10/08 09:47:14;;;;;;;10.52;5.70;;;;;;;17.69;48.49;102671.25;4992349;28;20051;-76
2021/10/08 09:49:42;;;;;;;7.72;4.47;;;;;;;17.78;48.97;102676.13;4978139;28;20436;-76
2021/10/08 09:52:18;;;;;;;6.75;3.88;;;;;;;17.93;49.03;102675.06;4994414;28;20062;-75
2021/10/08 09:54:54;;;;;;;7.00;4.10;;;;;;;18.06;48.81;102670.47;4990441;28;20085;-75
2021/10/08 09:57:22;;;;;;;7.85;4.05;;;;;;;18.16;49.16;102673.47;4991121;28;20120;-76
2021/10/08 09:59:53;;;;;;;7.38;4.38;;;;;;;18.33;48.76;102681.41;4988027;28;20083;-75
2021/10/08 10:02:21;;;;;;;5.88;4.05;;;;;;;18.44;48.68;102670.53;4991830;28;20093;-76
2021/10/08 10:04:54;;;;;;;6.88;4.22;;;;;;;18.60;48.52;102674.00;4991987;28;20051;-76
2021/10/08 10:07:26;;;;;;;5.85;3.35;;;;;;;18.73;48.85;102667.59;4992543;28;20043;-75
2021/10/08 10:09:53;;;;;;;5.90;3.55;;;;;;;18.87;48.64;102664.69;4983500;28;20054;-75
2021/10/08 10:12:34;;;;;;;5.40;3.63;;;;;;;19.02;48.51;102663.59;4990533;28;20124;-75
2021/10/08 10:15:01;;;;;;;7.05;3.65;;;;;;;19.15;47.94;102664.44;4992540;28;20497;-75
2021/10/08 10:17:27;;;;;;;5.88;3.22;;;;;;;19.27;48.25;102658.00;4993945;28;20042;-76
2021/10/08 10:19:55;;;;;;;5.80;3.00;;;;;;;19.39;47.98;102656.22;4993277;28;20566;-77
2021/10/08 10:22:22;;;;;;;5.18;3.10;;;;;;;19.54;47.81;102662.47;4998551;28;20050;-78
2021/10/08 10:24:51;;;;;;;5.05;3.10;;;;;;;19.66;47.42;102659.66;4974425;28;20057;-77
2021/10/08 10:27:17;;;;;;;4.85;2.75;;;;;;;19.77;47.68;102650.56;4995188;28;20046;-77
2021/10/08 10:29:46;;;;;;;4.57;2.38;;;;;;;19.92;47.35;102654.03;4998304;28;20046;-76
2021/10/08 10:32:14;;;;;;;5.45;2.40;;;;;;;20.04;47.07;102644.78;4994578;28;20081;-75
2021/10/08 10:34:41;;;;;;;3.70;2.35;;;;;;;20.15;47.04;102647.59;4980316;28;20042;-77
2021/10/08 10:37:09;;;;;;;4.35;2.50;;;;;;;20.30;46.80;102637.19;4992732;28;20891;-77
2021/10/08 10:39:36;;;;;;;4.07;2.08;;;;;;;20.42;46.90;102636.28;4989672;28;20101;-76
2021/10/08 10:42:03;;;;;;;3.40;2.13;;;;;;;20.55;46.17;102631.50;4975227;28;20053;-76
2021/10/08 10:44:34;;;;;;;3.90;1.83;;;;;;;20.69;46.62;102634.03;4993440;28;20038;-77
2021/10/08 10:47:30;;;;;;;4.05;2.25;;;;;;;20.83;44.67;102630.16;4989029;28;20085;-76
2021/10/08 10:50:12;;;;;;;3.83;2.17;;;;;;;20.97;44.63;102631.75;4992593;28;20084;-77
2021/10/08 10:52:50;;;;;;;4.20;2.30;;;;;;;21.06;43.87;102628.25;4990424;28;20077;-76
2021/10/08 10:55:18;;;;;;;4.78;2.30;;;;;;;21.14;44.54;102622.97;4952477;28;20113;-76
2021/10/08 10:57:50;;;;;;;3.17;1.83;;;;;;;21.27;43.82;102632.00;4974755;28;20097;-76
2021/10/08 11:00:45;;;;;;;4.43;1.92;;;;;;;21.36;43.59;102628.47;4986294;28;20077;-76
2021/10/08 11:03:17;;;;;;;;;;;;;;;21.12;44.74;102623.06;4984673;28;20065;-76
2021/10/08 11:06:11;;;;;;;2.97;1.80;;;;;;;21.46;43.26;102625.81;4979773;28;20391;-77
2021/10/08 11:09:05;;;;;;;5.78;2.28;;;;;;;21.55;41.99;102628.66;4991719;28;20043;-75
2021/10/08 11:11:32;;;;;;;4.13;2.17;;;;;;;21.60;43.18;102623.59;4992633;28;20114;-77
2021/10/08 11:14:16;;;;;;;3.63;2.50;;;;;;;21.68;41.69;102624.84;4989127;28;20406;-78
2021/10/08 11:16:43;;;;;;;3.15;1.90;;;;;;;21.73;43.23;102622.56;4990273;28;20073;-77
2021/10/08 11:19:38;;;;;;;4.85;2.38;;;;;;;21.79;42.37;102620.16;4967707;28;20100;-78
2021/10/08 11:22:05;;;;;;;3.40;1.88;;;;;;;21.84;43.11;102623.38;4986580;28;20690;-76
2021/10/08 11:25:00;;;;;;;4.68;2.08;;;;;;;21.92;42.93;102618.06;4979996;28;20464;-75
2021/10/08 11:27:41;;;;;;;3.15;1.83;;;;;;;21.99;42.85;102618.44;4958039;28;20501;-74
2021/10/08 11:30:20;;;;;;;3.05;1.88;;;;;;;22.08;42.11;102612.09;4974935;28;20055;-76
2021/10/08 11:32:49;;;;;;;4.13;2.08;;;;;;;22.19;42.11;102616.69;4995921;28;20101;-76
2021/10/08 11:35:48;;;;;;;3.58;1.80;;;;;;;22.27;41.25;102608.59;4992622;28;20438;-76
2021/10/08 11:38:18;;;;;;;3.00;1.90;;;;;;;22.34;41.26;102593.19;4932584;29;20111;-76
2021/10/08 11:40:46;;;;;;;3.83;1.75;;;;;;;22.39;41.96;102585.38;4922485;29;20059;-77